Time;durP1;ratioP1;P1;durP2;ratioP2;P2;SDS_P1;SDS_P2;PMS_P1;PMS_P2;Temp;Humidity;BMP_temperature;BMP_pressure;BME280_temperature;BME280_humidity;BME280_pressure;Samples;Min_cycle;Max_cycle;Signal;HPM_P1;HPM_P2
2024/01/28 00:01:35;;;;;;;;;;;;;;;;;;4740033;28;1141186;-68
2024/01/28 00:04:03;;;;;;;;;;;;;;;;;;4772669;28;1422515;-68
2024/01/28 00:06:30;;;;;;;;;;;;;;;;;;4793896;28;733169;-68
2024/01/28 00:08:57;;;;;;;;;;;;;;;;;;4826174;28;573168;-68
2024/01/28 00:11:25;;;;;;;;;;;;;;;;;;4754546;28;1158198;-68
2024/01/28 00:13:53;;;;;;;;;;;;;;;;;;4819737;28;1179229;-68
2024/01/28 00:16:22;;;;;;;;;;;;;;;;;;4770739;28;1241193;-68
2024/01/28 00:18:50;;;;;;;;;;;;;;;;;;4812437;28;996191;-68
2024/01/28 00:21:17;;;;;;;;;;;;;;;;;;4929478;28;234164;-68
2024/01/28 00:23:45;;;;;;;;;;;;;;;;;;4864499;28;744167;-68
2024/01/28 00:26:12;;;;;;;;;;;;;;;;;;4789091;28;865199;-68
2024/01/28 00:28:39;;;;;;;;;;;;;;;;;;4919262;28;224178;-68
2024/01/28 00:31:14;;;;;;;;;;;;;;;;;;4921833;28;152160;-69
2024/01/28 00:33:41;;;;;;;;;;;;;;;;;;4931841;28;96182;-68
2024/01/28 00:36:11;;;;;;;;;;;;;;;;;;4954813;28;38060;-68
2024/01/28 00:38:38;;;;;;;;;;;;;;;;;;4959960;28;29064;-68
2024/01/28 00:41:05;;;;;;;;;;;;;;;;;;4958717;28;53149;-68
2024/01/28 00:43:32;;;;;;;;;;;;;;;;;;4960036;28;33103;-68
2024/01/28 00:45:59;;;;;;;;;;;;;;;;;;4957154;28;48077;-68
2024/01/28 00:48:33;;;;;;;;;;;;;;;;;;4949876;28;58183;-68
2024/01/28 00:51:00;;;;;;;;;;;;;;;;;;4959150;28;43163;-67
2024/01/28 00:53:27;;;;;;;;;;;;;;;;;;4952962;28;42143;-68
2024/01/28 00:55:55;;;;;;;;;;;;;;;;;;4931605;28;374164;-68
2024/01/28 00:58:22;;;;;;;;;;;;;;;;;;4953144;28;97163;-68
2024/01/28 01:00:49;;;;;;;;;;;;;;;;;;4946746;28;63151;-68
2024/01/28 01:03:16;;;;;;;;;;;;;;;;;;4945228;28;65135;-68
2024/01/28 01:05:46;;;;;;;;;;;;;;;;;;4942247;28;91144;-68
2024/01/28 01:08:16;;;;;;;;;;;;;;;;;;4834701;28;1246184;-68
2024/01/28 01:10:43;;;;;;;;;;;;;;;;;;4950028;28;64182;-68
2024/01/28 01:13:10;;;;;;;;;;;;;;;;;;4956107;28;74165;-68
2024/01/28 01:15:37;;;;;;;;;;;;;;;;;;4940765;28;44113;-68
2024/01/28 01:18:04;;;;;;;;;;;;;;;;;;4942069;28;61137;-68
2024/01/28 01:20:33;;;;;;;;;;;;;;;;;;4950807;28;47159;-67
2024/01/28 01:23:00;;;;;;;;;;;;;;;;;;4944751;28;48141;-68
2024/01/28 01:25:27;;;;;;;;;;;;;;;;;;4952221;28;77146;-68
2024/01/28 01:27:56;;;;;;;;;;;;;;;;;;4959783;28;41167;-68
2024/01/28 01:30:23;;;;;;;;;;;;;;;;;;4956250;28;43064;-68
2024/01/28 01:32:51;;;;;;;;;;;;;;;;;;4960134;28;36179;-68
2024/01/28 01:35:21;;;;;;;;;;;;;;;;;;4957435;28;71108;-68
2024/01/28 01:37:48;;;;;;;;;;;;;;;;;;4955969;28;48066;-68
2024/01/28 01:40:15;;;;;;;;;;;;;;;;;;4792295;28;959181;-68
2024/01/28 01:42:43;;;;;;;;;;;;;;;;;;4775468;28;1066218;-68
2024/01/28 01:45:12;;;;;;;;;;;;;;;;;;4778437;28;1209175;-68
2024/01/28 01:47:39;;;;;;;;;;;;;;;;;;4761392;28;729191;-68
2024/01/28 01:50:06;;;;;;;;;;;;;;;;;;4814027;28;924174;-68
2024/01/28 01:52:41;;;;;;;;;;;;;;;;;;4780906;28;1514189;-68
2024/01/28 01:55:11;;;;;;;;;;;;;;;;;;4796720;28;1528193;-68
2024/01/28 01:57:38;;;;;;;;;;;;;;;;;;4943280;28;148165;-68
2024/01/28 02:00:05;;;;;;;;;;;;;;;;;;4943561;28;151167;-68
2024/01/28 02:02:33;;;;;;;;;;;;;;;;;;4945437;28;97132;-68
2024/01/28 02:05:00;;;;;;;;;;;;;;;;;;4809947;28;629630;-67
2024/01/28 02:07:27;;;;;;;;;;;;;;;;;;4746759;28;2009207;-68
2024/01/28 02:09:54;;;;;;;;;;;;;;;;;;4791393;28;667188;-67
2024/01/28 02:12:22;;;;;;;;;;;;;;;;;;4822104;28;591193;-68
2024/01/28 02:14:49;;;;;;;;;;;;;;;;;;4936875;28;129156;-68
2024/01/28 02:17:18;;;;;;;;;;;;;;;;;;4928322;28;213164;-67
2024/01/28 02:19:46;;;;;;;;;;;;;;;;;;4721520;28;1546198;-67
2024/01/28 02:22:16;;;;;;;;;;;;;;;;;;4951860;28;73164;-68
2024/01/28 02:24:43;;;;;;;;;;;;;;;;;;4950142;28;90173;-67
2024/01/28 02:27:10;;;;;;;;;;;;;;;;;;4953531;28;43105;-68
2024/01/28 02:29:37;;;;;;;;;;;;;;;;;;4951743;28;66102;-68
2024/01/28 02:32:04;;;;;;;;;;;;;;;;;;4955953;28;67168;-68
2024/01/28 02:34:31;;;;;;;;;;;;;;;;;;4947716;28;106159;-68
2024/01/28 02:36:59;;;;;;;;;;;;;;;;;;4938577;28;114189;-67
2024/01/28 02:39:26;;;;;;;;;;;;;;;;;;4922709;28;233176;-67
2024/01/28 02:41:53;;;;;;;;;;;;;;;;;;4795526;28;1388201;-67
2024/01/28 02:44:27;;;;;;;;;;;;;;;;;;4403643;28;6016226;-67
2024/01/28 02:46:55;;;;;;;;;;;;;;;;;;4787551;28;634207;-67
2024/01/28 02:49:23;;;;;;;;;;;;;;;;;;4676646;28;2231202;-67
2024/01/28 02:51:50;;;;;;;;;;;;;;;;;;4630206;28;1851208;-67
2024/01/28 02:54:23;;;;;;;;;;;;;;;;;;4787351;28;828203;-67
2024/01/28 02:56:51;;;;;;;;;;;;;;;;;;4816472;28;489182;-66
2024/01/28 02:59:23;;;;;;;;;;;;;;;;;;4833582;28;530166;-66
2024/01/28 03:01:57;;;;;;;;;;;;;;;;;;4726604;28;1224200;-66
2024/01/28 03:04:24;;;;;;;;;;;;;;;;;;4770659;28;1348194;-66
2024/01/28 03:06:52;;;;;;;;;;;;;;;;;;4763721;28;985200;-66
2024/01/28 03:09:19;;;;;;;;;;;;;;;;;;4728593;28;1063183;-66
2024/01/28 03:11:46;;;;;;;;;;;;;;;;;;4740623;28;1556218;-66
2024/01/28 03:14:15;;;;;;;;;;;;;;;;;;4613055;28;2092200;-66
2024/01/28 03:16:42;;;;;;;;;;;;;;;;;;4804109;28;672160;-67
2024/01/28 03:19:09;;;;;;;;;;;;;;;;;;4702449;28;910251;-66
2024/01/28 03:21:39;;;;;;;;;;;;;;;;;;4734020;28;1028196;-67
2024/01/28 03:24:06;;;;;;;;;;;;;;;;;;4734679;28;1249188;-66
2024/01/28 03:26:34;;;;;;;;;;;;;;;;;;4829540;28;423204;-66
2024/01/28 03:29:02;;;;;;;;;;;;;;;;;;4849355;28;582160;-67
2024/01/28 03:31:29;;;;;;;;;;;;;;;;;;4714726;28;1507198;-67
2024/01/28 03:33:57;;;;;;;;;;;;;;;;;;4782419;28;764162;-67
2024/01/28 03:36:25;;;;;;;;;;;;;;;;;;4755620;28;1697226;-67
2024/01/28 03:38:54;;;;;;;;;;;;;;;;;;4831133;28;1249179;-67
2024/01/28 03:41:22;;;;;;;;;;;;;;;;;;4803438;28;1776179;-67
2024/01/28 03:43:49;;;;;;;;;;;;;;;;;;4812974;28;871203;-67
2024/01/28 03:46:16;;;;;;;;;;;;;;;;;;4764482;28;960187;-67
2024/01/28 03:48:43;;;;;;;;;;;;;;;;;;4805163;28;1079186;-67
2024/01/28 03:51:11;;;;;;;;;;;;;;;;;;4801675;28;679184;-67
2024/01/28 03:53:38;;;;;;;;;;;;;;;;;;4753343;28;1923187;-67
2024/01/28 03:56:06;;;;;;;;;;;;;;;;;;4835546;28;822189;-67
2024/01/28 03:58:34;;;;;;;;;;;;;;;;;;4777593;28;1133189;-66
2024/01/28 04:01:03;;;;;;;;;;;;;;;;;;4836854;28;847194;-66
2024/01/28 04:03:30;;;;;;;;;;;;;;;;;;4860956;28;667188;-67
2024/01/28 04:05:57;;;;;;;;;;;;;;;;;;4779844;28;937189;-66
2024/01/28 04:08:26;;;;;;;;;;;;;;;;;;4804491;28;837188;-67
2024/01/28 04:10:53;;;;;;;;;;;;;;;;;;4802073;28;930169;-67
2024/01/28 04:13:20;;;;;;;;;;;;;;;;;;4821323;28;489147;-67
2024/01/28 04:15:48;;;;;;;;;;;;;;;;;;4832787;28;432193;-66
2024/01/28 04:18:17;;;;;;;;;;;;;;;;;;4798461;28;753182;-67
2024/01/28 04:20:45;;;;;;;;;;;;;;;;;;4831855;28;628177;-67
2024/01/28 04:23:13;;;;;;;;;;;;;;;;;;4777404;28;696181;-67
2024/01/28 04:25:43;;;;;;;;;;;;;;;;;;4825351;28;572197;-67
2024/01/28 04:28:10;;;;;;;;;;;;;;;;;;4773191;28;1252194;-67
2024/01/28 04:30:38;;;;;;;;;;;;;;;;;;4844639;28;506173;-67
2024/01/28 04:33:05;;;;;;;;;;;;;;;;;;4748913;28;1434188;-66
2024/01/28 04:35:33;;;;;;;;;;;;;;;;;;4820470;28;940199;-67
2024/01/28 04:38:00;;;;;;;;;;;;;;;;;;4768902;28;902177;-66
2024/01/28 04:40:27;;;;;;;;;;;;;;;;;;4769927;28;1705209;-66
2024/01/28 04:42:54;;;;;;;;;;;;;;;;;;4790778;28;965188;-66
2024/01/28 04:45:22;;;;;;;;;;;;;;;;;;4800457;28;891194;-67
2024/01/28 04:47:50;;;;;;;;;;;;;;;;;;4807617;28;953188;-66
2024/01/28 04:50:18;;;;;;;;;;;;;;;;;;4823319;28;647187;-66
2024/01/28 04:52:46;;;;;;;;;;;;;;;;;;4760666;28;1014189;-67
2024/01/28 04:55:13;;;;;;;;;;;;;;;;;;4782044;28;619198;-65
2024/01/28 04:57:40;;;;;;;;;;;;;;;;;;4843230;28;839179;-66
2024/01/28 05:00:10;;;;;;;;;;;;;;;;;;4866751;28;457189;-66
2024/01/28 05:02:43;;;;;;;;;;;;;;;;;;4756545;28;922218;-66
2024/01/28 05:05:10;;;;;;;;;;;;;;;;;;4800745;28;1025170;-66
2024/01/28 05:07:40;;;;;;;;;;;;;;;;;;4849239;28;927984;-66
2024/01/28 05:10:09;;;;;;;;;;;;;;;;;;4780544;28;766183;-66
2024/01/28 05:12:36;;;;;;;;;;;;;;;;;;4818174;28;566156;-67
2024/01/28 05:15:04;;;;;;;;;;;;;;;;;;4733065;28;1299181;-66
2024/01/28 05:17:32;;;;;;;;;;;;;;;;;;4776184;28;981177;-65
2024/01/28 05:19:59;;;;;;;;;;;;;;;;;;4716154;28;666175;-66
2024/01/28 05:22:26;;;;;;;;;;;;;;;;;;4772972;28;1437248;-66
2024/01/28 05:24:54;;;;;;;;;;;;;;;;;;4766567;28;961172;-66
2024/01/28 05:27:24;;;;;;;;;;;;;;;;;;4813391;28;622174;-66
2024/01/28 05:29:54;;;;;;;;;;;;;;;;;;4747520;28;1363174;-67
2024/01/28 05:32:24;;;;;;;;;;;;;;;;;;4719123;28;1698244;-67
2024/01/28 05:34:51;;;;;;;;;;;;;;;;;;4794661;28;1399207;-67
2024/01/28 05:37:19;;;;;;;;;;;;;;;;;;4823638;28;810186;-67
2024/01/28 05:39:46;;;;;;;;;;;;;;;;;;4773441;28;1216171;-67
2024/01/28 05:42:13;;;;;;;;;;;;;;;;;;4733712;28;995189;-67
2024/01/28 05:44:41;;;;;;;;;;;;;;;;;;4752202;28;1446182;-66
2024/01/28 05:47:09;;;;;;;;;;;;;;;;;;4753212;28;854169;-66
2024/01/28 05:49:36;;;;;;;;;;;;;;;;;;4558504;28;2183283;-67
2024/01/28 05:52:05;;;;;;;;;;;;;;;;;;4772981;28;762216;-67
2024/01/28 05:54:35;;;;;;;;;;;;;;;;;;4706263;28;2694183;-66
2024/01/28 05:57:03;;;;;;;;;;;;;;;;;;4785654;28;1309180;-67
2024/01/28 05:59:30;;;;;;;;;;;;;;;;;;4805298;28;687172;-67
2024/01/28 06:01:57;;;;;;;;;;;;;;;;;;4818703;28;562163;-68
2024/01/28 06:04:24;;;;;;;;;;;;;;;;;;4755667;28;1120193;-67
2024/01/28 06:06:52;;;;;;;;;;;;;;;;;;4662778;28;1875243;-65
2024/01/28 06:09:21;;;;;;;;;;;;;;;;;;4686744;28;933292;-66
2024/01/28 06:11:51;;;;;;;;;;;;;;;;;;4648868;28;1637181;-66
2024/01/28 06:14:24;;;;;;;;;;;;;;;;;;4640668;28;3781187;-66
2024/01/28 06:16:51;;;;;;;;;;;;;;;;;;4689333;28;1189187;-66
2024/01/28 06:19:18;;;;;;;;;;;;;;;;;;4751363;28;1013195;-66
2024/01/28 06:21:46;;;;;;;;;;;;;;;;;;4684841;28;1108547;-66
2024/01/28 06:24:13;;;;;;;;;;;;;;;;;;4779916;28;646196;-66
2024/01/28 06:26:41;;;;;;;;;;;;;;;;;;4741066;28;831191;-66
2024/01/28 06:29:08;;;;;;;;;;;;;;;;;;4787024;28;795196;-66
2024/01/28 06:31:38;;;;;;;;;;;;;;;;;;4797549;28;851223;-65
2024/01/28 06:34:07;;;;;;;;;;;;;;;;;;4772874;28;1581181;-65
2024/01/28 06:36:34;;;;;;;;;;;;;;;;;;4568972;28;2118198;-66
2024/01/28 06:39:02;;;;;;;;;;;;;;;;;;4762348;28;1027194;-65
2024/01/28 06:41:29;;;;;;;;;;;;;;;;;;4760333;28;944199;-65
2024/01/28 06:43:56;;;;;;;;;;;;;;;;;;4796157;28;1009242;-65
2024/01/28 06:46:24;;;;;;;;;;;;;;;;;;4752595;28;715186;-65
2024/01/28 06:48:52;;;;;;;;;;;;;;;;;;4816397;28;727078;-65
2024/01/28 06:51:19;;;;;;;;;;;;;;;;;;4777936;28;889204;-66
2024/01/28 06:53:48;;;;;;;;;;;;;;;;;;4773721;28;1296209;-66
2024/01/28 06:56:15;;;;;;;;;;;;;;;;;;4827787;28;433163;-66
2024/01/28 06:58:43;;;;;;;;;;;;;;;;;;4759972;28;1269195;-65
2024/01/28 07:01:11;;;;;;;;;;;;;;;;;;4796210;28;1450200;-66
2024/01/28 07:03:39;;;;;;;;;;;;;;;;;;4748225;28;1044202;-66
2024/01/28 07:06:14;;;;;;;;;;;;;;;;;;4703627;28;1595203;-66
2024/01/28 07:08:42;;;;;;;;;;;;;;;;;;4782785;28;873188;-66
2024/01/28 07:11:10;;;;;;;;;;;;;;;;;;4818241;28;753177;-66
2024/01/28 07:13:37;;;;;;;;;;;;;;;;;;4755955;28;2324193;-66
2024/01/28 07:16:04;;;;;;;;;;;;;;;;;;4790840;28;722203;-65
2024/01/28 07:18:31;;;;;;;;;;;;;;;;;;4804946;28;748195;-65
2024/01/28 07:21:02;;;;;;;;;;;;;;;;;;4825714;28;897190;-65
2024/01/28 07:23:29;;;;;;;;;;;;;;;;;;4750677;28;1084194;-66
2024/01/28 07:25:57;;;;;;;;;;;;;;;;;;4827301;28;1135223;-65
2024/01/28 07:28:24;;;;;;;;;;;;;;;;;;4853292;28;509171;-65
2024/01/28 07:30:52;;;;;;;;;;;;;;;;;;4696218;28;1416186;-65
2024/01/28 07:33:21;;;;;;;;;;;;;;;;;;4793945;28;977190;-65
2024/01/28 07:35:52;;;;;;;;;;;;;;;;;;4782052;28;1315203;-66
2024/01/28 07:38:19;;;;;;;;;;;;;;;;;;4864842;28;1073201;-65
2024/01/28 07:40:46;;;;;;;;;;;;;;;;;;4826324;28;514158;-65
2024/01/28 07:43:13;;;;;;;;;;;;;;;;;;4846011;28;890224;-65
2024/01/28 07:45:42;;;;;;;;;;;;;;;;;;4751615;28;709168;-65
2024/01/28 07:48:09;;;;;;;;;;;;;;;;;;4793118;28;1135186;-65
2024/01/28 07:50:37;;;;;;;;;;;;;;;;;;4775917;28;1865070;-65
2024/01/28 07:53:04;;;;;;;;;;;;;;;;;;4896766;28;345148;-65
2024/01/28 07:55:31;;;;;;;;;;;;;;;;;;4884447;28;368186;-65
2024/01/28 07:57:58;;;;;;;;;;;;;;;;;;4782077;28;645205;-65
2024/01/28 08:00:26;;;;;;;;;;;;;;;;;;4823864;28;823169;-65
2024/01/28 08:02:53;;;;;;;;;;;;;;;;;;4824389;28;672199;-65
2024/01/28 08:05:23;;;;;;;;;;;;;;;;;;4765932;28;701199;-65
2024/01/28 08:07:50;;;;;;;;;;;;;;;;;;4915953;28;184160;-65
2024/01/28 08:10:17;;;;;;;;;;;;;;;;;;4924071;28;246254;-65
2024/01/28 08:12:44;;;;;;;;;;;;;;;;;;4919816;28;211151;-65
2024/01/28 08:15:12;;;;;;;;;;;;;;;;;;4878069;28;317171;-65
2024/01/28 08:17:39;;;;;;;;;;;;;;;;;;4794546;28;1211189;-65
2024/01/28 08:20:12;;;;;;;;;;;;;;;;;;4868337;28;629197;-65
2024/01/28 08:22:41;;;;;;;;;;;;;;;;;;4879440;28;573178;-65
2024/01/28 08:25:08;;;;;;;;;;;;;;;;;;4884134;28;385180;-69
2024/01/28 08:27:35;;;;;;;;;;;;;;;;;;4893089;28;324181;-66
2024/01/28 08:30:03;;;;;;;;;;;;;;;;;;4833035;28;380208;-65
2024/01/28 08:32:30;;;;;;;;;;;;;;;;;;4863053;28;628190;-66
2024/01/28 08:34:57;;;;;;;;;;;;;;;;;;4870476;28;296176;-66
2024/01/28 08:37:24;;;;;;;;;;;;;;;;;;4863327;28;617270;-66
2024/01/28 08:39:51;;;;;;;;;;;;;;;;;;4856590;28;485211;-65
2024/01/28 08:42:22;;;;;;;;;;;;;;;;;;4897317;28;347156;-66
2024/01/28 08:44:49;;;;;;;;;;;;;;;;;;4863717;28;442174;-66
2024/01/28 08:47:16;;;;;;;;;;;;;;;;;;4913188;28;273167;-66
2024/01/28 08:49:48;;;;;;;;;;;;;;;;;;4902234;28;789173;-66
2024/01/28 08:52:15;;;;;;;;;;;;;;;;;;4904372;28;467174;-66
2024/01/28 08:54:42;;;;;;;;;;;;;;;;;;4858075;28;558175;-66
2024/01/28 08:57:12;;;;;;;;;;;;;;;;;;4893889;28;486177;-66
2024/01/28 08:59:39;;;;;;;;;;;;;;;;;;4869090;28;613186;-66
2024/01/28 09:02:06;;;;;;;;;;;;;;;;;;4914937;28;225189;-66
2024/01/28 09:04:36;;;;;;;;;;;;;;;;;;4882303;28;421167;-66
2024/01/28 09:07:03;;;;;;;;;;;;;;;;;;4876857;28;290204;-66
2024/01/28 09:09:30;;;;;;;;;;;;;;;;;;4897989;28;479158;-66
2024/01/28 09:11:58;;;;;;;;;;;;;;;;;;4907555;28;563165;-67
2024/01/28 09:14:26;;;;;;;;;;;;;;;;;;4938542;28;197169;-66
2024/01/28 09:16:53;;;;;;;;;;;;;;;;;;4938881;28;157546;-66
2024/01/28 09:19:20;;;;;;;;;;;;;;;;;;4926142;28;175145;-67
2024/01/28 09:21:49;;;;;;;;;;;;;;;;;;4931397;28;119569;-66
2024/01/28 09:24:17;;;;;;;;;;;;;;;;;;4893235;28;240157;-66
2024/01/28 09:26:45;;;;;;;;;;;;;;;;;;4943154;28;108163;-67
2024/01/28 09:29:14;;;;;;;;;;;;;;;;;;4916126;28;220199;-67
2024/01/28 09:31:44;;;;;;;;;;;;;;;;;;4942504;28;113431;-67
2024/01/28 09:34:11;;;;;;;;;;;;;;;;;;4901616;28;262172;-67
2024/01/28 09:36:38;;;;;;;;;;;;;;;;;;4917211;28;268188;-65
2024/01/28 09:39:09;;;;;;;;;;;;;;;;;;4914208;28;172125;-65
2024/01/28 09:41:37;;;;;;;;;;;;;;;;;;4903003;28;265173;-65
2024/01/28 09:44:04;;;;;;;;;;;;;;;;;;4910263;28;310179;-66
2024/01/28 09:46:36;;;;;;;;;;;;;;;;;;4932847;28;181155;-67
2024/01/28 09:49:03;;;;;;;;;;;;;;;;;;4933843;28;117151;-67
2024/01/28 09:51:33;;;;;;;;;;;;;;;;;;4942460;28;78058;-66
2024/01/28 09:54:01;;;;;;;;;;;;;;;;;;4945494;28;102159;-66
2024/01/28 09:56:28;;;;;;;;;;;;;;;;;;4948365;28;65178;-66
2024/01/28 09:58:55;;;;;;;;;;;;;;;;;;4924127;28;322173;-66
2024/01/28 10:01:24;;;;;;;;;;;;;;;;;;4920756;28;197179;-66
2024/01/28 10:03:51;;;;;;;;;;;;;;;;;;4893238;28;543194;-67
2024/01/28 10:06:18;;;;;;;;;;;;;;;;;;4894719;28;463182;-67
2024/01/28 10:08:46;;;;;;;;;;;;;;;;;;4922400;28;152163;-67
2024/01/28 10:11:13;;;;;;;;;;;;;;;;;;4927841;28;158158;-66
2024/01/28 10:13:40;;;;;;;;;;;;;;;;;;4941984;28;96166;-67
2024/01/28 10:16:07;;;;;;;;;;;;;;;;;;4960778;28;28067;-67
2024/01/28 10:18:34;;;;;;;;;;;;;;;;;;4934878;28;194163;-66
2024/01/28 10:22:02;;;;;;;;;;;;;;;;;;4962925;22;147144;-85
2024/01/28 10:24:29;;;;;;;;;;;;;;;;;;4965015;28;89148;-84
2024/01/28 10:26:57;;;;;;;;;;;;;;;;;;4969931;28;65160;-83
2024/01/28 10:29:25;;;;;;;;;;;;;;;;;;4982876;28;64177;-84
2024/01/28 10:31:52;;;;;;;;;;;;;;;;;;4981964;28;43056;-85
2024/01/28 10:34:20;;;;;;;;;;;;;;;;;;4996829;28;33106;-85
2024/01/28 10:36:47;;;;;;;;;;;;;;;;;;4992272;28;29072;-85
2024/01/28 10:39:15;;;;;;;;;;;;;;;;;;4994554;28;27069;-86
2024/01/28 10:41:42;;;;;;;;;;;;;;;;;;4995070;28;25142;-85
2024/01/28 10:44:09;;;;;;;;;;;;;;;;;;4997644;28;27094;-85
2024/01/28 10:46:37;;;;;;;;;;;;;;;;;;4987767;28;32104;-85
2024/01/28 10:49:04;;;;;;;;;;;;;;;;;;4986290;28;26058;-84
2024/01/28 10:51:31;;;;;;;;;;;;;;;;;;5001512;28;29086;-84
2024/01/28 10:53:59;;;;;;;;;;;;;;;;;;4994163;28;28075;-85
2024/01/28 10:56:26;;;;;;;;;;;;;;;;;;4994470;28;28066;-85
2024/01/28 10:58:54;;;;;;;;;;;;;;;;;;4995018;28;25144;-86
2024/01/28 11:01:21;;;;;;;;;;;;;;;;;;4986560;28;28105;-85
2024/01/28 11:03:48;;;;;;;;;;;;;;;;;;4990730;28;25177;-85
2024/01/28 11:06:16;;;;;;;;;;;;;;;;;;4986886;28;29075;-85
2024/01/28 11:08:43;;;;;;;;;;;;;;;;;;4993792;28;27078;-86
2024/01/28 11:11:10;;;;;;;;;;;;;;;;;;4992065;28;26069;-82
2024/01/28 11:13:38;;;;;;;;;;;;;;;;;;4993753;28;28065;-83
2024/01/28 11:16:05;;;;;;;;;;;;;;;;;;4994693;28;25102;-84
2024/01/28 11:18:32;;;;;;;;;;;;;;;;;;4993365;28;25079;-83
2024/01/28 11:20:59;;;;;;;;;;;;;;;;;;4988952;28;29089;-83
2024/01/28 11:23:26;;;;;;;;;;;;;;;;;;4985576;28;29083;-83
2024/01/28 11:26:00;;;;;;;;;;;;;;;;;;4987941;28;29054;-82
2024/01/28 11:28:28;;;;;;;;;;;;;;;;;;4985278;28;29081;-83
2024/01/28 11:30:57;;;;;;;;;;;;;;;;;;4968628;28;25112;-83
2024/01/28 11:33:24;;;;;;;;;;;;;;;;;;4965705;28;29103;-82
2024/01/28 11:35:51;;;;;;;;;;;;;;;;;;4954044;28;25075;-82
2024/01/28 11:38:19;;;;;;;;;;;;;;;;;;4949549;28;25073;-81
2024/01/28 11:40:46;;;;;;;;;;;;;;;;;;4920965;28;26127;-82
2024/01/28 11:43:15;;;;;;;;;;;;;;;;;;4944201;28;25086;-82
2024/01/28 11:45:42;;;;;;;;;;;;;;;;;;4929447;28;25119;-82
2024/01/28 11:48:10;;;;;;;;;;;;;;;;;;4911378;28;25079;-81
2024/01/28 11:50:39;;;;;;;;;;;;;;;;;;4901082;28;25080;-82
2024/01/28 11:53:06;;;;;;;;;;;;;;;;;;4905695;28;25064;-81
2024/01/28 11:55:33;;;;;;;;;;;;;;;;;;4897505;28;29103;-82
2024/01/28 11:58:00;;;;;;;;;;;;;;;;;;4896838;28;24995;-82
2024/01/28 12:00:27;;;;;;;;;;;;;;;;;;4912024;28;28049;-82
2024/01/28 12:02:54;;;;;;;;;;;;;;;;;;4891898;28;25964;-82
2024/01/28 12:05:21;;;;;;;;;;;;;;;;;;4907194;28;28083;-82
2024/01/28 12:07:49;;;;;;;;;;;;;;;;;;4881275;28;25294;-82
2024/01/28 12:10:17;;;;;;;;;;;;;;;;;;4745746;28;25083;-82
2024/01/28 12:12:44;;;;;;;;;;;;;;;;;;4838628;28;27071;-82
2024/01/28 12:15:11;;;;;;;;;;;;;;;;;;4847465;28;29079;-82
2024/01/28 12:17:41;;;;;;;;;;;;;;;;;;4854945;28;25128;-83
2024/01/28 12:20:08;;;;;;;;;;;;;;;;;;4873590;28;27076;-82
2024/01/28 12:22:36;;;;;;;;;;;;;;;;;;4859758;28;25067;-81
2024/01/28 12:25:03;;;;;;;;;;;;;;;;;;4877228;28;25862;-82
2024/01/28 12:27:30;;;;;;;;;;;;;;;;;;4863833;28;25079;-82
2024/01/28 12:29:57;;;;;;;;;;;;;;;;;;4816119;28;25080;-81
2024/01/28 12:32:25;;;;;;;;;;;;;;;;;;4885688;28;27083;-81
2024/01/28 12:34:54;;;;;;;;;;;;;;;;;;4901465;28;25116;-81
2024/01/28 12:37:30;;;;;;;;;;;;;;;;;;4928994;28;27071;-83
2024/01/28 12:39:57;;;;;;;;;;;;;;;;;;4931852;28;25102;-81
2024/01/28 12:42:24;;;;;;;;;;;;;;;;;;4934395;28;25096;-81
2024/01/28 12:44:54;;;;;;;;;;;;;;;;;;4929971;28;25167;-82
2024/01/28 12:47:21;;;;;;;;;;;;;;;;;;4916530;28;28092;-81
2024/01/28 12:49:49;;;;;;;;;;;;;;;;;;4906138;28;25060;-81
2024/01/28 12:52:16;;;;;;;;;;;;;;;;;;4933231;28;25061;-81
2024/01/28 12:54:43;;;;;;;;;;;;;;;;;;4942906;28;26116;-81
2024/01/28 12:57:11;;;;;;;;;;;;;;;;;;4946106;28;25084;-82
2024/01/28 12:59:39;;;;;;;;;;;;;;;;;;4941135;28;28110;-82
2024/01/28 13:02:06;;;;;;;;;;;;;;;;;;4920753;28;25162;-82
2024/01/28 13:04:33;;;;;;;;;;;;;;;;;;4918703;28;25326;-82
2024/01/28 13:07:00;;;;;;;;;;;;;;;;;;4905724;28;27058;-81
2024/01/28 13:09:27;;;;;;;;;;;;;;;;;;4882453;28;25073;-82
2024/01/28 13:11:54;;;;;;;;;;;;;;;;;;4878531;28;28171;-82
2024/01/28 13:14:22;;;;;;;;;;;;;;;;;;4886253;28;25097;-81
2024/01/28 13:16:50;;;;;;;;;;;;;;;;;;4894348;28;27065;-82
2024/01/28 13:19:17;;;;;;;;;;;;;;;;;;4891874;28;25162;-82
2024/01/28 13:21:44;;;;;;;;;;;;;;;;;;4865715;28;25095;-82
2024/01/28 13:24:13;;;;;;;;;;;;;;;;;;4874958;28;25100;-82
2024/01/28 13:26:40;;;;;;;;;;;;;;;;;;4920171;28;25067;-82
2024/01/28 13:29:08;;;;;;;;;;;;;;;;;;4919574;28;25081;-81
2024/01/28 13:31:35;;;;;;;;;;;;;;;;;;4913352;28;25096;-81
2024/01/28 13:34:02;;;;;;;;;;;;;;;;;;4918555;28;28057;-82
2024/01/28 13:36:29;;;;;;;;;;;;;;;;;;4887408;28;25077;-82
2024/01/28 13:38:57;;;;;;;;;;;;;;;;;;4868479;28;29071;-82
2024/01/28 13:41:24;;;;;;;;;;;;;;;;;;4860251;28;25113;-82
2024/01/28 13:43:51;;;;;;;;;;;;;;;;;;4871980;28;25071;-81
2024/01/28 13:46:18;;;;;;;;;;;;;;;;;;4872796;28;28063;-82
2024/01/28 13:48:45;;;;;;;;;;;;;;;;;;4927533;28;25159;-81
2024/01/28 13:51:15;;;;;;;;;;;;;;;;;;4951024;28;25140;-81
2024/01/28 13:53:42;;;;;;;;;;;;;;;;;;4951317;28;25143;-82
2024/01/28 13:56:09;;;;;;;;;;;;;;;;;;4941604;28;27138;-82
2024/01/28 13:58:36;;;;;;;;;;;;;;;;;;4925064;28;28062;-82
2024/01/28 14:01:04;;;;;;;;;;;;;;;;;;4969146;28;35115;-82
2024/01/28 14:03:32;;;;;;;;;;;;;;;;;;4966607;28;25127;-82
2024/01/28 14:05:59;;;;;;;;;;;;;;;;;;4977108;28;29061;-82
2024/01/28 14:08:27;;;;;;;;;;;;;;;;;;4957677;28;47173;-82
2024/01/28 14:10:54;;;;;;;;;;;;;;;;;;4955447;28;66030;-82
2024/01/28 14:13:21;;;;;;;;;;;;;;;;;;4952615;28;67082;-82
2024/01/28 14:15:48;;;;;;;;;;;;;;;;;;4949441;28;147177;-82
2024/01/28 14:18:15;;;;;;;;;;;;;;;;;;4951523;28;67166;-83
2024/01/28 14:20:42;;;;;;;;;;;;;;;;;;4943851;28;67101;-83
2024/01/28 14:23:09;;;;;;;;;;;;;;;;;;4959531;28;60150;-82
2024/01/28 14:25:36;;;;;;;;;;;;;;;;;;4956446;28;46110;-83
2024/01/28 14:28:06;;;;;;;;;;;;;;;;;;4958668;28;56097;-82
2024/01/28 14:30:34;;;;;;;;;;;;;;;;;;4966610;28;54127;-83
2024/01/28 14:33:01;;;;;;;;;;;;;;;;;;4957334;28;51074;-83
2024/01/28 14:35:28;;;;;;;;;;;;;;;;;;4959779;28;58144;-83
2024/01/28 14:37:55;;;;;;;;;;;;;;;;;;4946924;28;51162;-83
2024/01/28 14:40:22;;;;;;;;;;;;;;;;;;4959514;28;50101;-83
2024/01/28 14:42:49;;;;;;;;;;;;;;;;;;4957838;28;50112;-83
2024/01/28 14:45:17;;;;;;;;;;;;;;;;;;4959077;28;38056;-82
2024/01/28 14:47:44;;;;;;;;;;;;;;;;;;4958581;28;49322;-82
2024/01/28 14:50:11;;;;;;;;;;;;;;;;;;4948822;28;127184;-83
2024/01/28 14:52:38;;;;;;;;;;;;;;;;;;4950180;28;61111;-82
2024/01/28 14:55:05;;;;;;;;;;;;;;;;;;4949276;28;71101;-82
2024/01/28 14:57:32;;;;;;;;;;;;;;;;;;4962434;28;56094;-82
2024/01/28 15:00:00;;;;;;;;;;;;;;;;;;4960226;28;56091;-83
2024/01/28 15:02:29;;;;;;;;;;;;;;;;;;4938413;28;69135;-83
2024/01/28 15:04:56;;;;;;;;;;;;;;;;;;4945963;28;88141;-82
2024/01/28 15:07:23;;;;;;;;;;;;;;;;;;4929397;28;188143;-83
2024/01/28 15:09:55;;;;;;;;;;;;;;;;;;4939130;28;65125;-83
2024/01/28 15:12:22;;;;;;;;;;;;;;;;;;4959369;28;49127;-83
2024/01/28 15:14:51;;;;;;;;;;;;;;;;;;4951281;28;89103;-83
2024/01/28 15:17:18;;;;;;;;;;;;;;;;;;4958231;28;48152;-83
2024/01/28 15:19:45;;;;;;;;;;;;;;;;;;4951454;28;82141;-83
2024/01/28 15:22:12;;;;;;;;;;;;;;;;;;4953247;28;61080;-82
2024/01/28 15:24:42;;;;;;;;;;;;;;;;;;4942652;28;197156;-84
2024/01/28 15:27:12;;;;;;;;;;;;;;;;;;4918796;28;260163;-84
2024/01/28 15:29:39;;;;;;;;;;;;;;;;;;4875884;28;625168;-84
2024/01/28 15:32:07;;;;;;;;;;;;;;;;;;4899339;28;303184;-84
2024/01/28 15:34:34;;;;;;;;;;;;;;;;;;4861830;28;512183;-84
2024/01/28 15:37:01;;;;;;;;;;;;;;;;;;4855479;28;978200;-84
2024/01/28 15:39:28;;;;;;;;;;;;;;;;;;4916210;28;289173;-84
2024/01/28 15:41:56;;;;;;;;;;;;;;;;;;4862291;28;660218;-84
2024/01/28 15:44:23;;;;;;;;;;;;;;;;;;4906734;28;331184;-84
2024/01/28 15:46:50;;;;;;;;;;;;;;;;;;4872529;28;542172;-84
2024/01/28 15:49:17;;;;;;;;;;;;;;;;;;4893924;28;313163;-84
2024/01/28 15:51:45;;;;;;;;;;;;;;;;;;4910059;28;216199;-84
2024/01/28 15:54:12;;;;;;;;;;;;;;;;;;4959527;28;53110;-84
2024/01/28 15:56:45;;;;;;;;;;;;;;;;;;4918234;28;198167;-84
2024/01/28 15:59:12;;;;;;;;;;;;;;;;;;4937601;28;131117;-84
2024/01/28 16:01:39;;;;;;;;;;;;;;;;;;4944044;28;82150;-84
2024/01/28 16:04:07;;;;;;;;;;;;;;;;;;4948536;28;48157;-84
2024/01/28 16:06:34;;;;;;;;;;;;;;;;;;4957111;28;63126;-84
2024/01/28 16:09:01;;;;;;;;;;;;;;;;;;4941499;28;205154;-84
2024/01/28 16:11:28;;;;;;;;;;;;;;;;;;4945987;28;58062;-84
2024/01/28 16:13:56;;;;;;;;;;;;;;;;;;4813297;28;773204;-83
2024/01/28 16:16:26;;;;;;;;;;;;;;;;;;4884440;28;621212;-83
2024/01/28 16:18:54;;;;;;;;;;;;;;;;;;4934903;28;98198;-84
2024/01/28 16:21:21;;;;;;;;;;;;;;;;;;4786148;28;776207;-84
2024/01/28 16:23:48;;;;;;;;;;;;;;;;;;4896504;28;261191;-84
2024/01/28 16:26:15;;;;;;;;;;;;;;;;;;4954311;28;42153;-84
2024/01/28 16:28:43;;;;;;;;;;;;;;;;;;4958061;28;43150;-84
2024/01/28 16:31:10;;;;;;;;;;;;;;;;;;4936251;28;159166;-83
2024/01/28 16:33:37;;;;;;;;;;;;;;;;;;4958086;28;27090;-84
2024/01/28 16:36:05;;;;;;;;;;;;;;;;;;4969087;28;31166;-84